Time;durP1;ratioP1;P1;durP2;ratioP2;P2;SDS_P1;SDS_P2;PMS_P1;PMS_P2;Temp;Humidity;BMP_temperature;BMP_pressure;BME280_temperature;BME280_humidity;BME280_pressure;Samples;Min_cycle;Max_cycle;Signal;HPM_P1;HPM_P2
2022/12/30 00:00:13;;;;;;;15.18;3.00;;;7.40;99.90;;;;;;5035493;28;20044;-69
2022/12/30 00:02:39;;;;;;;17.50;3.35;;;7.30;99.90;;;;;;5049690;28;20061;-70
2022/12/30 00:05:05;;;;;;;18.00;3.08;;;7.30;99.90;;;;;;5044086;28;20387;-70
2022/12/30 00:07:34;;;;;;;16.67;3.30;;;7.20;99.90;;;;;;5044839;28;20045;-70
2022/12/30 00:10:00;;;;;;;18.27;2.72;;;7.20;99.90;;;;;;5032060;28;20034;-70
2022/12/30 00:35:01;;;;;;;12.15;2.58;;;7.30;99.90;;;;;;5051836;28;20470;-69
2022/12/30 00:37:27;;;;;;;17.58;2.85;;;7.20;99.90;;;;;;5052557;28;20045;-69
2022/12/30 00:39:52;;;;;;;10.88;2.80;;;7.20;99.90;;;;;;5034069;28;20033;-70
2022/12/30 00:45:03;;;;;;;16.60;2.80;;;7.30;99.90;;;;;;5052542;28;20048;-70
2022/12/30 00:47:28;;;;;;;12.90;2.17;;;7.20;99.90;;;;;;5035820;28;20086;-70
2022/12/30 00:58:06;;;;;;;12.15;2.10;;;7.20;99.90;;;;;;5052490;28;20395;-70
2022/12/30 01:00:32;;;;;;;19.88;2.50;;;7.20;99.90;;;;;;5034199;28;20049;-69
2022/12/30 01:02:57;;;;;;;11.20;1.85;;;7.20;99.90;;;;;;5035368;28;20061;-70
2022/12/30 01:05:23;;;;;;;19.02;2.63;;;7.10;99.90;;;;;;5052211;28;20044;-69
2022/12/30 01:07:48;;;;;;;19.65;3.65;;;7.10;99.90;;;;;;5044638;28;20045;-70
2022/12/30 01:10:14;;;;;;;12.13;2.30;;;7.00;99.90;;;;;;5015130;28;20152;-70
2022/12/30 01:12:40;;;;;;;12.00;2.30;;;7.00;99.90;;;;;;5032108;28;20048;-70
2022/12/30 01:15:06;;;;;;;14.48;2.78;;;7.00;99.90;;;;;;5050871;28;20044;-69
2022/12/30 01:17:33;;;;;;;9.52;2.17;;;7.00;99.90;;;;;;5051711;28;20412;-70
2022/12/30 01:19:59;;;;;;;14.48;2.42;;;7.00;99.90;;;;;;5051061;28;20396;-70
2022/12/30 01:22:25;;;;;;;12.90;2.55;;;6.90;99.90;;;;;;5051170;28;20412;-70
2022/12/30 01:24:50;;;;;;;10.35;2.00;;;6.80;99.90;;;;;;5035578;28;20049;-69
2022/12/30 01:27:16;;;;;;;16.80;3.30;;;6.90;99.90;;;;;;5051875;28;20572;-69
2022/12/30 01:29:42;;;;;;;13.07;2.40;;;7.00;99.90;;;;;;5051080;28;20541;-69
2022/12/30 01:32:11;;;;;;;15.55;3.28;;;6.90;99.90;;;;;;5051773;28;20044;-69
2022/12/30 01:34:37;;;;;;;12.02;2.15;;;7.00;99.90;;;;;;5034527;28;20041;-70
2022/12/30 01:37:03;;;;;;;11.75;2.13;;;6.90;99.90;;;;;;5052112;28;20041;-70
2022/12/30 01:39:29;;;;;;;21.48;2.80;;;6.90;99.90;;;;;;5033229;28;20040;-70
2022/12/30 01:41:55;;;;;;;12.95;2.25;;;6.80;99.90;;;;;;5050597;28;20037;-70
2022/12/30 01:44:39;;;;;;;19.00;3.10;;;6.80;99.90;;;;;;5067503;28;20500;-69
2022/12/30 01:47:05;;;;;;;18.73;3.28;;;6.90;99.90;;;;;;5051978;28;20052;-70
2022/12/30 01:49:37;;;;;;;17.45;2.97;;;6.90;99.90;;;;;;5050682;28;20049;-69
2022/12/30 01:52:03;;;;;;;9.35;1.80;;;6.90;99.90;;;;;;5050799;28;20037;-70
2022/12/30 01:54:29;;;;;;;13.68;2.38;;;6.70;99.90;;;;;;5050974;28;20047;-69
2022/12/30 01:56:54;;;;;;;16.30;2.90;;;6.70;99.90;;;;;;5051536;28;20124;-69
2022/12/30 01:59:21;;;;;;;15.52;2.88;;;6.60;99.90;;;;;;5034278;28;20045;-70
2022/12/30 02:01:49;;;;;;;14.35;2.67;;;6.60;99.90;;;;;;5034761;28;20044;-70
2022/12/30 02:04:18;;;;;;;12.82;2.25;;;6.70;99.90;;;;;;5034263;28;20044;-70
2022/12/30 02:06:55;;;;;;;13.10;2.78;;;6.70;99.90;;;;;;5039056;28;20044;-70
2022/12/30 02:09:20;;;;;;;15.13;2.53;;;6.80;99.90;;;;;;5036881;28;20045;-69
2022/12/30 02:11:46;;;;;;;20.10;2.78;;;6.80;99.90;;;;;;5053625;28;20036;-70
2022/12/30 02:14:12;;;;;;;11.82;2.17;;;6.80;99.90;;;;;;5038237;28;20029;-70
2022/12/30 02:16:49;;;;;;;13.73;2.35;;;6.90;99.90;;;;;;5055443;28;20080;-69
2022/12/30 02:19:33;;;;;;;13.23;2.50;;;6.80;99.90;;;;;;5037111;28;20098;-70
2022/12/30 02:22:08;;;;;;;12.05;1.70;;;6.80;99.90;;;;;;5040421;28;20064;-69
2022/12/30 02:25:09;;;;;;;12.70;2.20;;;6.80;99.90;;;;;;5051422;28;20037;-70
2022/12/30 02:28:09;;;;;;;16.60;2.37;;;6.80;99.90;;;;;;5052423;28;20394;-69
2022/12/30 02:31:13;;;;;;;12.73;3.67;;;6.70;99.90;;;;;;5068506;28;20041;-70
2022/12/30 02:34:02;;;;;;;13.65;3.15;;;6.70;99.90;;;;;;5038435;28;20478;-70
2022/12/30 02:36:38;;;;;;;21.92;2.63;;;6.60;99.90;;;;;;5036440;28;20038;-70
2022/12/30 02:39:07;;;;;;;11.70;2.10;;;6.60;99.90;;;;;;5036856;28;20041;-70
2022/12/30 02:44:41;;;;;;;9.18;1.88;;;6.60;99.90;;;;;;5034799;28;20053;-69
2022/12/30 02:47:24;;;;;;;15.10;2.85;;;6.60;99.90;;;;;;5018487;28;20049;-70
2022/12/30 02:52:41;;;;;;;17.35;2.88;;;6.60;99.90;;;;;;5054469;28;20128;-70
2022/12/30 02:55:08;;;;;;;13.43;2.75;;;6.50;99.90;;;;;;5037932;28;20081;-69
2022/12/30 02:57:35;;;;;;;7.05;2.00;;;6.50;99.90;;;;;;5037922;28;20041;-70
2022/12/30 03:06:31;;;;;;;8.32;2.30;;;6.50;99.90;;;;;;5054403;28;20128;-70
2022/12/30 03:09:15;;;;;;;13.80;3.58;;;6.50;99.90;;;;;;5035979;28;20285;-70
2022/12/30 03:12:06;;;;;;;10.57;2.10;;;6.50;99.90;;;;;;5044412;28;20053;-70
2022/12/30 03:15:03;;;;;;;16.30;2.25;;;6.50;99.90;;;;;;5036921;28;20071;-70
2022/12/30 03:17:35;;;;;;;6.30;1.30;;;6.50;99.90;;;;;;5045443;28;20102;-70
2022/12/30 03:20:07;;;;;;;11.18;2.50;;;6.50;99.90;;;;;;5036825;28;20040;-70
2022/12/30 03:28:08;;;;;;;12.70;2.72;;;6.40;99.90;;;;;;5053999;28;20080;-70
2022/12/30 03:30:40;;;;;;;13.70;2.75;;;6.50;99.90;;;;;;5035775;28;20497;-70
2022/12/30 03:33:05;;;;;;;13.23;2.23;;;6.40;99.90;;;;;;5036799;28;20041;-70
2022/12/30 03:35:37;;;;;;;17.75;3.40;;;6.40;99.90;;;;;;5034443;28;20040;-70
2022/12/30 03:38:06;;;;;;;10.77;2.10;;;6.40;99.90;;;;;;5038370;28;20047;-70
2022/12/30 03:40:36;;;;;;;10.07;2.88;;;6.40;99.90;;;;;;5041710;28;20072;-70
2022/12/30 03:43:03;;;;;;;13.88;4.20;;;6.30;99.90;;;;;;5045175;28;20041;-70
2022/12/30 03:45:28;;;;;;;13.20;2.15;;;6.30;99.90;;;;;;5035111;28;20038;-70
2022/12/30 03:47:54;;;;;;;12.60;2.28;;;6.30;99.90;;;;;;5035557;28;20531;-71
2022/12/30 03:50:19;;;;;;;11.70;2.25;;;6.30;99.90;;;;;;5036413;28;20041;-70
2022/12/30 03:52:45;;;;;;;11.70;1.92;;;6.30;99.90;;;;;;5036680;28;20037;-70
2022/12/30 03:55:10;;;;;;;11.73;3.28;;;6.40;99.90;;;;;;5053693;28;20086;-70
2022/12/30 03:57:36;;;;;;;13.13;2.08;;;6.30;99.90;;;;;;5037220;28;20041;-70
2022/12/30 04:00:07;;;;;;;12.35;2.25;;;6.20;99.90;;;;;;5036890;28;20041;-70
2022/12/30 04:02:32;;;;;;;13.38;2.22;;;6.30;99.90;;;;;;5051391;28;20063;-70
2022/12/30 04:04:58;;;;;;;11.52;3.55;;;6.30;99.90;;;;;;5052329;28;20412;-70
2022/12/30 04:07:24;;;;;;;14.82;2.20;;;6.20;99.90;;;;;;5052434;28;20040;-70
2022/12/30 04:09:50;;;;;;;9.63;2.20;;;6.20;99.90;;;;;;5051811;28;20052;-70
2022/12/30 04:12:16;;;;;;;13.38;2.08;;;6.20;99.90;;;;;;5035618;28;20032;-70
2022/12/30 04:14:41;;;;;;;11.93;2.40;;;6.20;99.90;;;;;;5052121;28;20037;-70
2022/12/30 04:17:07;;;;;;;13.25;2.53;;;6.20;99.90;;;;;;5035854;28;20073;-70
2022/12/30 04:19:32;;;;;;;17.88;2.83;;;6.20;99.90;;;;;;5052142;28;20094;-70
2022/12/30 04:21:58;;;;;;;12.23;2.20;;;6.20;99.90;;;;;;5052257;28;20072;-70
2022/12/30 04:24:24;;;;;;;13.55;2.30;;;6.20;99.90;;;;;;5035208;28;20044;-70
2022/12/30 04:26:49;;;;;;;11.90;2.13;;;6.20;99.90;;;;;;5051360;28;20489;-70
2022/12/30 04:29:15;;;;;;;10.55;2.67;;;6.20;99.90;;;;;;5033579;28;20568;-70
2022/12/30 04:31:40;;;;;;;11.98;2.58;;;6.20;99.90;;;;;;5051185;28;20035;-70
2022/12/30 04:34:06;;;;;;;13.45;2.60;;;6.20;99.90;;;;;;5045526;28;20064;-70
2022/12/30 04:36:32;;;;;;;16.88;2.63;;;6.20;99.90;;;;;;5042205;28;20036;-70
2022/12/30 04:38:57;;;;;;;9.45;2.28;;;6.30;99.90;;;;;;5051370;28;20041;-70
2022/12/30 04:41:23;;;;;;;11.43;2.50;;;6.30;99.90;;;;;;5051579;28;20040;-70
2022/12/30 04:43:48;;;;;;;12.13;2.33;;;6.20;99.90;;;;;;5052653;28;20052;-70
2022/12/30 04:46:14;;;;;;;10.73;2.25;;;6.30;99.90;;;;;;5052403;28;20103;-70
2022/12/30 04:48:40;;;;;;;12.98;3.00;;;6.30;99.90;;;;;;5051307;28;20037;-70
2022/12/30 04:51:06;;;;;;;15.10;2.67;;;6.20;99.90;;;;;;5052259;28;20507;-70
2022/12/30 04:53:31;;;;;;;11.07;2.33;;;6.20;99.90;;;;;;5035917;28;20067;-70
2022/12/30 04:55:57;;;;;;;8.65;2.08;;;6.20;99.90;;;;;;5035598;28;20481;-70
2022/12/30 04:58:24;;;;;;;14.38;3.08;;;6.30;99.90;;;;;;5052250;28;20037;-70
2022/12/30 05:00:51;;;;;;;11.15;2.50;;;6.30;99.90;;;;;;5052218;28;20041;-69
2022/12/30 05:03:17;;;;;;;13.73;2.92;;;6.30;99.90;;;;;;5051132;28;20076;-70
2022/12/30 05:05:43;;;;;;;15.13;2.95;;;6.30;99.90;;;;;;5033999;28;20071;-70
2022/12/30 05:08:08;;;;;;;11.52;2.72;;;6.30;99.90;;;;;;5022327;28;20033;-70
2022/12/30 05:10:36;;;;;;;11.88;2.80;;;6.30;99.90;;;;;;5034519;28;20524;-70
2022/12/30 05:13:01;;;;;;;12.48;2.80;;;6.30;99.90;;;;;;5052212;28;20102;-70
2022/12/30 05:15:27;;;;;;;10.98;2.75;;;6.30;99.90;;;;;;5051931;28;20512;-70
2022/12/30 05:17:52;;;;;;;14.52;3.15;;;6.30;99.90;;;;;;5051235;28;20401;-70
2022/12/30 05:20:18;;;;;;;9.70;2.60;;;6.30;99.90;;;;;;5033651;28;20048;-70
2022/12/30 05:22:44;;;;;;;9.88;2.90;;;6.30;99.90;;;;;;5051015;28;20036;-70
2022/12/30 05:27:53;;;;;;;8.57;2.50;;;6.10;99.90;;;;;;5051895;28;20049;-70
2022/12/30 05:30:19;;;;;;;8.38;2.67;;;6.10;99.90;;;;;;5049965;28;20084;-70
2022/12/30 05:32:44;;;;;;;11.57;2.90;;;6.10;99.90;;;;;;5051871;28;20045;-70
2022/12/30 05:35:10;;;;;;;12.32;3.00;;;6.10;99.90;;;;;;5034419;28;20041;-70
2022/12/30 05:37:36;;;;;;;11.77;3.92;;;6.00;99.90;;;;;;5043065;28;20033;-70
2022/12/30 05:40:02;;;;;;;12.82;3.22;;;6.00;99.90;;;;;;5051893;28;20481;-70
2022/12/30 05:42:28;;;;;;;12.15;2.90;;;5.90;99.90;;;;;;5019473;28;20046;-70
2022/12/30 05:44:54;;;;;;;9.38;3.28;;;6.00;99.90;;;;;;5065463;28;20048;-70
2022/12/30 05:47:19;;;;;;;10.85;2.97;;;6.00;99.90;;;;;;5067750;28;20375;-70
2022/12/30 05:49:45;;;;;;;12.05;2.40;;;6.00;99.90;;;;;;5035535;28;20095;-70
2022/12/30 05:52:11;;;;;;;12.00;2.58;;;5.90;99.90;;;;;;5037562;28;20032;-70
2022/12/30 05:54:36;;;;;;;9.85;3.88;;;6.00;99.90;;;;;;5055095;28;20051;-70
2022/12/30 05:57:05;;;;;;;13.60;2.40;;;6.00;99.90;;;;;;5055021;28;20041;-70
2022/12/30 05:59:30;;;;;;;10.98;2.50;;;6.00;99.90;;;;;;5038382;28;20033;-70
2022/12/30 06:01:56;;;;;;;9.57;2.53;;;5.90;99.90;;;;;;5048051;28;20039;-70
2022/12/30 06:04:21;;;;;;;10.68;2.25;;;5.90;99.90;;;;;;5055372;28;20508;-70
2022/12/30 06:06:47;;;;;;;8.57;2.28;;;5.90;99.90;;;;;;5053713;28;20045;-70
2022/12/30 06:09:12;;;;;;;12.13;2.15;;;5.90;99.90;;;;;;5046504;28;20037;-70
2022/12/30 06:11:38;;;;;;;13.55;2.25;;;5.90;99.90;;;;;;5039329;28;20030;-70
2022/12/30 06:14:03;;;;;;;13.38;2.50;;;5.90;99.90;;;;;;5048427;28;20482;-70
2022/12/30 06:16:29;;;;;;;8.32;2.40;;;5.80;99.90;;;;;;5065700;28;20036;-70
2022/12/30 06:18:54;;;;;;;7.93;2.03;;;5.80;99.90;;;;;;5054967;28;20095;-70
2022/12/30 06:21:20;;;;;;;12.80;2.35;;;5.80;99.90;;;;;;5051048;28;20497;-70
2022/12/30 06:23:46;;;;;;;11.77;3.30;;;5.80;99.90;;;;;;5050185;28;20048;-70
2022/12/30 06:26:11;;;;;;;11.02;2.50;;;5.80;99.90;;;;;;5036888;28;20033;-70
2022/12/30 06:28:37;;;;;;;10.02;2.35;;;5.80;99.90;;;;;;5055215;28;20098;-70
2022/12/30 06:31:03;;;;;;;10.02;2.10;;;5.80;99.90;;;;;;5037708;28;20041;-70
2022/12/30 06:33:28;;;;;;;11.73;2.88;;;5.80;99.90;;;;;;5037576;28;20061;-70
2022/12/30 06:35:54;;;;;;;12.65;2.42;;;5.80;99.90;;;;;;5036891;28;20032;-70
2022/12/30 06:38:20;;;;;;;10.60;1.92;;;5.70;99.90;;;;;;5034590;28;20459;-71
2022/12/30 06:40:45;;;;;;;10.60;2.42;;;5.70;99.90;;;;;;5051984;28;20048;-70
2022/12/30 06:43:12;;;;;;;11.82;2.30;;;5.70;99.90;;;;;;5038804;28;20073;-70
2022/12/30 06:45:38;;;;;;;13.70;2.80;;;5.70;99.90;;;;;;5046370;28;20185;-70
2022/12/30 06:48:04;;;;;;;7.82;2.15;;;5.70;99.90;;;;;;5036895;28;20120;-70
2022/12/30 06:50:29;;;;;;;10.30;2.72;;;5.60;99.90;;;;;;5039963;28;20044;-70
2022/12/30 06:52:55;;;;;;;11.25;2.50;;;5.60;99.90;;;;;;5036200;28;20037;-70
2022/12/30 06:55:21;;;;;;;9.77;2.60;;;5.60;99.90;;;;;;5036174;28;20033;-70
2022/12/30 06:57:48;;;;;;;11.15;2.50;;;5.70;99.90;;;;;;5036179;28;20156;-70
2022/12/30 07:00:14;;;;;;;10.15;2.42;;;5.60;99.90;;;;;;5039234;28;20083;-70
2022/12/30 07:02:41;;;;;;;12.45;2.38;;;5.60;99.90;;;;;;5051705;28;20076;-70
2022/12/30 07:05:08;;;;;;;10.25;2.35;;;5.60;99.90;;;;;;5049147;28;20506;-71
2022/12/30 07:07:34;;;;;;;12.30;2.97;;;5.60;99.90;;;;;;5052529;28;20037;-71
2022/12/30 07:09:59;;;;;;;12.93;2.75;;;5.60;99.90;;;;;;5054469;28;20083;-70
2022/12/30 07:12:25;;;;;;;10.88;2.20;;;5.50;99.90;;;;;;5036077;28;20033;-70
2022/12/30 07:14:51;;;;;;;12.38;2.35;;;5.50;99.90;;;;;;5036721;28;20174;-71
2022/12/30 07:17:16;;;;;;;10.73;2.13;;;5.60;99.90;;;;;;5054112;28;20115;-70
2022/12/30 07:19:42;;;;;;;13.55;2.40;;;5.50;99.90;;;;;;5053002;28;20049;-70
2022/12/30 07:22:08;;;;;;;13.88;2.50;;;5.60;99.90;;;;;;5054084;28;20037;-71
2022/12/30 07:24:34;;;;;;;16.02;3.40;;;5.60;99.90;;;;;;5053428;28;20106;-71
2022/12/30 07:26:59;;;;;;;14.70;2.50;;;5.60;99.90;;;;;;5053887;28;20036;-71
2022/12/30 07:29:25;;;;;;;13.35;2.63;;;5.60;99.90;;;;;;5053836;28;20037;-71
2022/12/30 07:31:50;;;;;;;11.38;2.10;;;5.60;99.90;;;;;;5037318;28;20059;-71
2022/12/30 07:34:16;;;;;;;10.80;2.45;;;5.60;99.90;;;;;;5033944;28;20043;-71
2022/12/30 07:36:42;;;;;;;13.23;3.40;;;5.60;99.90;;;;;;5037209;28;20102;-71
2022/12/30 07:39:07;;;;;;;8.23;1.90;;;5.60;99.90;;;;;;5053708;28;20045;-71
2022/12/30 07:41:33;;;;;;;8.63;1.98;;;5.60;99.90;;;;;;5053955;28;20098;-71
2022/12/30 07:43:59;;;;;;;23.05;2.50;;;5.60;99.90;;;;;;5053625;28;20033;-71
2022/12/30 07:46:24;;;;;;;11.98;2.00;;;5.60;99.90;;;;;;5053823;28;20498;-71
2022/12/30 07:48:50;;;;;;;10.63;2.67;;;5.60;99.90;;;;;;5053554;28;20045;-71
2022/12/30 07:51:17;;;;;;;8.80;2.30;;;5.60;99.90;;;;;;5036876;28;20156;-70
2022/12/30 07:53:43;;;;;;;7.90;1.95;;;5.60;99.90;;;;;;5053469;28;20037;-71
2022/12/30 07:56:12;;;;;;;11.05;2.00;;;5.60;99.90;;;;;;5053396;28;20033;-71
2022/12/30 07:58:38;;;;;;;13.63;2.47;;;5.50;99.90;;;;;;5036754;28;20045;-71
2022/12/30 08:01:12;;;;;;;14.05;2.75;;;5.50;99.90;;;;;;5053600;28;20064;-71
2022/12/30 08:03:40;;;;;;;12.45;2.40;;;5.50;99.90;;;;;;5034714;28;20060;-71
2022/12/30 08:06:09;;;;;;;9.45;2.00;;;5.60;99.90;;;;;;5035925;28;20056;-71
2022/12/30 08:08:35;;;;;;;12.40;2.10;;;5.60;99.90;;;;;;5036538;28;20044;-71
2022/12/30 08:11:01;;;;;;;14.60;2.40;;;5.50;99.90;;;;;;5053159;28;20401;-71
2022/12/30 08:13:29;;;;;;;11.38;2.70;;;5.60;99.90;;;;;;5036590;28;20037;-71
2022/12/30 08:15:55;;;;;;;10.32;2.30;;;5.70;99.90;;;;;;5036427;28;20036;-71
2022/12/30 08:18:20;;;;;;;11.10;2.67;;;5.60;99.90;;;;;;5036406;28;20044;-71
2022/12/30 08:20:46;;;;;;;10.13;3.35;;;5.60;99.90;;;;;;5053219;28;20045;-71
2022/12/30 08:23:12;;;;;;;11.25;2.08;;;5.60;99.90;;;;;;5036534;28;20049;-71
2022/12/30 08:25:37;;;;;;;9.43;2.47;;;5.70;99.90;;;;;;5036075;28;20044;-71
2022/12/30 08:28:03;;;;;;;9.20;2.30;;;5.70;99.90;;;;;;5052841;28;20506;-71
2022/12/30 08:30:28;;;;;;;10.23;2.33;;;5.60;99.90;;;;;;5052781;28;20044;-71
2022/12/30 08:32:54;;;;;;;10.50;1.90;;;5.60;99.90;;;;;;5050401;28;21769;-71
2022/12/30 08:35:20;;;;;;;12.90;2.80;;;5.70;99.90;;;;;;5051012;28;20049;-71
2022/12/30 08:37:45;;;;;;;9.63;1.83;;;5.60;99.90;;;;;;5052978;28;20044;-70
2022/12/30 08:40:11;;;;;;;8.15;2.00;;;5.70;99.90;;;;;;5052868;28;20049;-71
2022/12/30 08:42:37;;;;;;;12.75;2.80;;;5.70;99.90;;;;;;5052620;28;20131;-71
2022/12/30 08:45:07;;;;;;;11.85;2.20;;;5.70;99.90;;;;;;5052704;28;20420;-71
2022/12/30 08:47:34;;;;;;;10.40;2.53;;;5.70;99.90;;;;;;5052893;28;20358;-71
2022/12/30 08:50:00;;;;;;;11.30;3.08;;;5.70;99.90;;;;;;5035757;28;20045;-71
2022/12/30 08:52:27;;;;;;;10.60;2.08;;;5.70;99.90;;;;;;5035863;28;20041;-71
2022/12/30 08:54:53;;;;;;;12.95;2.40;;;5.70;99.90;;;;;;5035701;28;20507;-71
2022/12/30 08:57:18;;;;;;;8.85;2.05;;;5.80;99.90;;;;;;5068849;28;20048;-71
2022/12/30 08:59:44;;;;;;;10.40;2.38;;;5.70;99.90;;;;;;5035847;28;20393;-71
2022/12/30 09:02:14;;;;;;;10.23;2.28;;;5.70;99.90;;;;;;5050246;28;20053;-71
2022/12/30 09:04:40;;;;;;;11.38;2.03;;;5.80;99.90;;;;;;5048810;28;20045;-71
2022/12/30 09:07:07;;;;;;;8.52;2.30;;;5.80;99.90;;;;;;5031819;28;20090;-71
2022/12/30 09:09:33;;;;;;;13.10;2.40;;;5.80;99.90;;;;;;5035759;28;20375;-71
2022/12/30 09:11:58;;;;;;;7.75;2.40;;;5.80;99.90;;;;;;5035522;28;20043;-71
2022/12/30 09:14:24;;;;;;;10.75;2.67;;;5.80;99.90;;;;;;5049120;28;20442;-72
2022/12/30 09:16:50;;;;;;;10.95;2.22;;;5.80;99.90;;;;;;5045245;28;20524;-72
2022/12/30 09:19:16;;;;;;;11.70;2.25;;;5.90;99.90;;;;;;5051462;28;20037;-70
2022/12/30 09:21:42;;;;;;;9.85;2.47;;;5.90;99.90;;;;;;5035381;28;20072;-70
2022/12/30 09:24:09;;;;;;;9.00;2.25;;;6.00;99.90;;;;;;5039582;28;20084;-71
2022/12/30 09:26:35;;;;;;;14.20;2.72;;;6.10;99.90;;;;;;5050899;28;20045;-70
2022/12/30 09:29:01;;;;;;;14.43;2.50;;;6.10;99.90;;;;;;5052096;28;20055;-71
2022/12/30 09:31:27;;;;;;;8.30;1.98;;;6.10;99.90;;;;;;5050273;28;20434;-70
2022/12/30 09:33:53;;;;;;;13.85;2.10;;;6.20;99.90;;;;;;5034268;28;20520;-71
2022/12/30 09:36:19;;;;;;;9.18;2.10;;;6.20;99.90;;;;;;5050703;28;20037;-71
2022/12/30 09:38:44;;;;;;;7.85;2.17;;;6.20;99.90;;;;;;5035148;28;20033;-71
2022/12/30 09:43:15;;;;;;;8.73;2.47;;;6.30;99.90;;;;;;5033782;28;20052;-71
2022/12/30 09:44:35;;;;;;;10.52;2.28;;;6.30;99.90;;;;;;5051701;28;20098;-70
2022/12/30 09:47:26;;;;;;;10.27;2.63;;;6.40;99.90;;;;;;5016597;28;20037;-70
2022/12/30 09:49:54;;;;;;;8.70;2.22;;;6.40;99.90;;;;;;5023360;28;20116;-71
2022/12/30 09:52:27;;;;;;;10.27;2.10;;;6.40;99.90;;;;;;5035029;28;20076;-70
2022/12/30 09:55:02;;;;;;;8.07;1.98;;;6.50;99.90;;;;;;5050994;28;20037;-70
2022/12/30 09:57:31;;;;;;;11.40;3.65;;;6.50;99.90;;;;;;5051813;28;20048;-70
2022/12/30 10:00:04;;;;;;;7.40;1.77;;;6.60;99.90;;;;;;5034840;28;20493;-70
2022/12/30 10:02:49;;;;;;;8.20;1.73;;;6.60;99.90;;;;;;5033756;28;20056;-70
2022/12/30 10:05:15;;;;;;;7.47;1.75;;;6.60;99.90;;;;;;5044107;28;20406;-70
2022/12/30 10:08:03;;;;;;;9.20;2.28;;;6.70;99.90;;;;;;5031578;28;20052;-70
2022/12/30 10:10:41;;;;;;;8.98;2.38;;;6.80;99.90;;;;;;5039489;28;20045;-70
2022/12/30 10:13:18;;;;;;;8.90;1.95;;;6.70;99.90;;;;;;5034928;28;20124;-70
2022/12/30 10:15:55;;;;;;;11.55;2.42;;;6.80;99.90;;;;;;5040637;28;20092;-70
2022/12/30 10:18:39;;;;;;;9.82;2.40;;;6.80;99.90;;;;;;5032951;28;20041;-70
2022/12/30 10:21:30;;;;;;;5.43;1.35;;;6.80;99.90;;;;;;5051672;28;20076;-70
2022/12/30 10:24:05;;;;;;;8.90;2.10;;;6.90;99.90;;;;;;5018383;28;20120;-70
2022/12/30 10:26:46;;;;;;;8.07;2.15;;;6.90;99.90;;;;;;5035096;28;20038;-70
2022/12/30 10:29:17;;;;;;;7.97;1.60;;;6.90;99.90;;;;;;5043171;28;20087;-70
2022/12/30 10:31:46;;;;;;;9.07;2.40;;;6.90;99.90;;;;;;5038407;28;20044;-72
2022/12/30 10:34:14;;;;;;;12.23;2.30;;;7.00;99.90;;;;;;5048760;28;20037;-71
2022/12/30 10:36:39;;;;;;;8.30;1.63;;;7.10;99.90;;;;;;5021215;28;20029;-71
2022/12/30 10:39:20;;;;;;;12.90;2.10;;;7.10;99.90;;;;;;5054899;28;20033;-71
2022/12/30 10:42:23;;;;;;;9.55;1.77;;;7.10;99.90;;;;;;5053415;28;20048;-71
2022/12/30 10:45:26;;;;;;;11.18;2.65;;;7.20;99.90;;;;;;5051545;28;20061;-71
2022/12/30 10:48:18;;;;;;;8.70;2.50;;;7.20;99.90;;;;;;5051724;28;20047;-71
2022/12/30 10:50:48;;;;;;;9.23;1.92;;;7.20;99.90;;;;;;5051543;28;20401;-71
2022/12/30 10:53:20;;;;;;;7.13;1.85;;;7.20;99.90;;;;;;5050969;28;20033;-71
2022/12/30 10:56:11;;;;;;;5.85;1.70;;;7.30;99.90;;;;;;5038090;28;20076;-71
2022/12/30 10:58:46;;;;;;;5.78;1.70;;;7.30;99.90;;;;;;5034418;28;20041;-71
2022/12/30 11:01:20;;;;;;;7.55;1.67;;;7.40;99.90;;;;;;5062187;28;20045;-72
2022/12/30 11:03:49;;;;;;;5.00;1.52;;;7.40;99.90;;;;;;5035056;28;20057;-71
2022/12/30 11:06:21;;;;;;;6.43;1.73;;;7.40;99.90;;;;;;5050193;28;20037;-72
2022/12/30 11:08:47;;;;;;;8.23;1.40;;;7.40;99.90;;;;;;5049808;28;20045;-72
2022/12/30 11:11:14;;;;;;;5.18;1.27;;;7.40;99.90;;;;;;5054443;28;20118;-72
2022/12/30 11:16:34;;;;;;;8.18;1.75;;;7.50;99.90;;;;;;5053142;28;20076;-72
2022/12/30 11:19:02;;;;;;;5.57;1.52;;;7.50;99.90;;;;;;5054043;28;20044;-72
2022/12/30 11:21:31;;;;;;;8.30;2.40;;;7.60;99.90;;;;;;5054117;28;20045;-72
2022/12/30 11:23:59;;;;;;;7.10;1.58;;;7.60;99.90;;;;;;5053112;28;20106;-72
2022/12/30 11:26:28;;;;;;;6.32;1.50;;;7.60;99.90;;;;;;5036645;28;20037;-72
2022/12/30 11:29:01;;;;;;;7.90;1.75;;;7.60;99.90;;;;;;5052895;28;20119;-72
2022/12/30 11:31:36;;;;;;;5.68;1.23;;;7.60;99.90;;;;;;5033988;28;20045;-72
2022/12/30 11:34:04;;;;;;;4.97;1.45;;;7.60;99.90;;;;;;5035773;28;20037;-72
2022/12/30 11:36:30;;;;;;;7.30;1.88;;;7.70;99.90;;;;;;5037689;28;20040;-72
2022/12/30 11:39:05;;;;;;;6.72;1.35;;;7.70;99.90;;;;;;5036326;28;20397;-72
2022/12/30 11:41:32;;;;;;;7.43;1.40;;;7.70;99.90;;;;;;5034511;28;20068;-72
2022/12/30 11:44:00;;;;;;;5.90;1.38;;;7.80;99.90;;;;;;5017223;28;20041;-72
2022/12/30 11:46:33;;;;;;;8.38;1.40;;;7.90;99.90;;;;;;5034032;28;20052;-72
2022/12/30 11:49:02;;;;;;;7.05;1.48;;;7.90;99.90;;;;;;5037881;28;20076;-71
2022/12/30 11:51:43;;;;;;;6.60;1.58;;;7.90;99.90;;;;;;5052368;28;20040;-72
2022/12/30 11:54:11;;;;;;;5.05;1.50;;;8.00;99.90;;;;;;5054282;28;20044;-72
2022/12/30 11:56:59;;;;;;;7.13;1.75;;;7.90;99.90;;;;;;5035993;28;20087;-72
2022/12/30 11:59:36;;;;;;;5.25;1.20;;;8.00;99.90;;;;;;5053324;28;20040;-71
2022/12/30 12:02:37;;;;;;;5.20;1.45;;;8.00;99.90;;;;;;5053220;28;20120;-71
2022/12/30 12:05:39;;;;;;;6.40;1.70;;;8.00;99.90;;;;;;5010649;28;20098;-71
2022/12/30 12:08:19;;;;;;;7.80;1.48;;;8.00;99.90;;;;;;5047845;28;20493;-72
2022/12/30 12:11:04;;;;;;;4.90;1.33;;;8.00;99.90;;;;;;5035728;28;20045;-72
2022/12/30 12:13:57;;;;;;;6.63;1.70;;;8.10;99.90;;;;;;5036775;28;20037;-71
2022/12/30 12:16:45;;;;;;;6.63;1.90;;;8.10;99.90;;;;;;5051597;28;20108;-72
2022/12/30 12:19:24;;;;;;;7.80;1.60;;;8.10;99.90;;;;;;5034432;28;20075;-72
2022/12/30 12:21:54;;;;;;;7.18;1.70;;;8.20;99.90;;;;;;5035618;28;20094;-72
2022/12/30 12:24:26;;;;;;;7.78;1.60;;;8.20;99.90;;;;;;5036368;28;20075;-72
2022/12/30 12:27:02;;;;;;;4.28;1.25;;;8.20;99.90;;;;;;5036081;28;20041;-72
2022/12/30 12:29:29;;;;;;;6.32;1.40;;;8.20;99.90;;;;;;5032828;28;20073;-73
2022/12/30 12:32:16;;;;;;;5.10;1.27;;;8.20;99.90;;;;;;5047683;28;20045;-73
2022/12/30 12:35:17;;;;;;;7.32;1.50;;;8.30;99.90;;;;;;5032692;28;20069;-72
2022/12/30 12:38:13;;;;;;;5.25;1.20;;;8.30;99.90;;;;;;5023409;28;20049;-73
2022/12/30 12:40:58;;;;;;;5.05;1.58;;;8.30;99.90;;;;;;5038316;28;20099;-72
2022/12/30 12:43:49;;;;;;;7.35;1.70;;;8.30;99.90;;;;;;5035390;28;20037;-72
2022/12/30 12:46:42;;;;;;;8.05;2.03;;;8.40;99.90;;;;;;5037324;28;20124;-73
2022/12/30 12:49:22;;;;;;;4.82;1.38;;;8.40;99.90;;;;;;5034840;28;20517;-72
2022/12/30 12:52:01;;;;;;;4.25;1.25;;;8.40;99.90;;;;;;5036584;28;20068;-72
2022/12/30 12:54:39;;;;;;;5.57;1.45;;;8.30;99.90;;;;;;5049586;28;20543;-72
2022/12/30 12:57:34;;;;;;;5.68;1.70;;;8.40;99.90;;;;;;5048106;28;20122;-73
2022/12/30 13:00:10;;;;;;;4.40;0.98;;;8.50;99.90;;;;;;5012872;28;20410;-74
2022/12/30 13:02:48;;;;;;;7.10;1.80;;;8.50;99.90;;;;;;5037506;28;20065;-73
2022/12/30 13:05:40;;;;;;;6.20;1.55;;;8.60;99.90;;;;;;5050166;28;20044;-73
2022/12/30 13:08:38;;;;;;;4.07;1.20;;;8.50;99.90;;;;;;5037962;28;20064;-72
2022/12/30 13:11:36;;;;;;;7.90;1.90;;;8.50;99.90;;;;;;5034350;28;20040;-72
2022/12/30 13:14:22;;;;;;;5.20;1.35;;;8.60;99.90;;;;;;5028119;28;20053;-72
2022/12/30 13:16:53;;;;;;;6.40;1.33;;;8.60;99.90;;;;;;5035490;28;20041;-71
2022/12/30 13:19:23;;;;;;;4.97;1.20;;;8.60;99.90;;;;;;5035704;28;20037;-72
2022/12/30 13:21:52;;;;;;;10.02;2.83;;;8.60;99.90;;;;;;5049822;28;20091;-71
2022/12/30 13:24:34;;;;;;;6.20;1.92;;;8.70;99.90;;;;;;5033331;28;20041;-71
2022/12/30 13:27:01;;;;;;;4.13;1.30;;;8.70;99.90;;;;;;5051981;28;20040;-71
2022/12/30 13:29:33;;;;;;;6.60;1.23;;;8.60;99.90;;;;;;5031308;28;20045;-72
2022/12/30 13:32:26;;;;;;;4.75;1.20;;;8.70;99.90;;;;;;5050100;28;20059;-72
2022/12/30 13:35:20;;;;;;;5.95;1.10;;;8.70;99.90;;;;;;5051189;28;20045;-72
2022/12/30 13:37:56;;;;;;;4.72;1.42;;;8.80;99.90;;;;;;5034287;28;20174;-72
2022/12/30 13:40:26;;;;;;;5.32;1.08;;;8.70;99.90;;;;;;5051096;28;20045;-71
2022/12/30 13:43:26;;;;;;;7.53;1.33;;;8.80;99.90;;;;;;5034006;28;20048;-72
2022/12/30 13:45:57;;;;;;;7.53;1.35;;;8.90;99.90;;;;;;5045423;28;20041;-72
2022/12/30 13:48:24;;;;;;;5.65;1.38;;;8.80;99.90;;;;;;5030698;28;20037;-71
2022/12/30 13:51:25;;;;;;;8.30;1.23;;;8.80;99.90;;;;;;5027918;28;20048;-72
2022/12/30 13:54:05;;;;;;;3.33;0.70;;;8.90;99.90;;;;;;5032940;28;20489;-71
2022/12/30 13:56:43;;;;;;;4.53;1.23;;;8.90;99.90;;;;;;5051598;28;20490;-72
2022/12/30 13:59:29;;;;;;;5.35;2.40;;;8.90;99.90;;;;;;5049744;28;20041;-72
2022/12/30 14:02:20;;;;;;;4.45;0.90;;;8.90;99.90;;;;;;5052755;28;20494;-72
2022/12/30 14:04:51;;;;;;;6.75;1.55;;;8.90;99.90;;;;;;5035942;28;20049;-72
2022/12/30 14:07:38;;;;;;;6.43;1.77;;;8.90;99.90;;;;;;5031316;28;20041;-71